sensor_id;sensor_type;location;lat;lon;timestamp;P1;durP1;ratioP1;P2;durP2;ratioP2
16577;SDS011;8401;52.528;13.340;2022-12-20T00:01:21;17.07;;;10.47;;
16577;SDS011;8401;52.528;13.340;2022-12-20T00:03:49;20.63;;;12.43;;
16577;SDS011;8401;52.528;13.340;2022-12-20T00:06:16;15.97;;;10.60;;
16577;SDS011;8401;52.528;13.340;2022-12-20T00:08:42;17.83;;;10.73;;
16577;SDS011;8401;52.528;13.340;2022-12-20T00:11:09;17.03;;;10.53;;
16577;SDS011;8401;52.528;13.340;2022-12-20T00:13:35;17.37;;;10.10;;
16577;SDS011;8401;52.528;13.340;2022-12-20T00:16:05;16.80;;;9.77;;
16577;SDS011;8401;52.528;13.340;2022-12-20T00:18:31;17.80;;;10.63;;
16577;SDS011;8401;52.528;13.340;2022-12-20T00:21:00;18.60;;;11.17;;
16577;SDS011;8401;52.528;13.340;2022-12-20T00:23:27;15.30;;;9.17;;
16577;SDS011;8401;52.528;13.340;2022-12-20T00:26:03;17.40;;;10.07;;
16577;SDS011;8401;52.528;13.340;2022-12-20T00:28:32;20.03;;;10.57;;
16577;SDS011;8401;52.528;13.340;2022-12-20T00:30:58;17.10;;;10.00;;
16577;SDS011;8401;52.528;13.340;2022-12-20T00:33:25;21.57;;;11.40;;
16577;SDS011;8401;52.528;13.340;2022-12-20T00:35:50;19.30;;;11.37;;
16577;SDS011;8401;52.528;13.340;2022-12-20T00:38:18;17.17;;;9.70;;
16577;SDS011;8401;52.528;13.340;2022-12-20T00:40:43;18.57;;;10.07;;
16577;SDS011;8401;52.528;13.340;2022-12-20T00:43:09;20.33;;;11.30;;
16577;SDS011;8401;52.528;13.340;2022-12-20T00:45:35;16.83;;;10.07;;
16577;SDS011;8401;52.528;13.340;2022-12-20T00:48:00;14.20;;;9.40;;
16577;SDS011;8401;52.528;13.340;2022-12-20T00:50:26;16.53;;;9.93;;
16577;SDS011;8401;52.528;13.340;2022-12-20T00:52:52;16.93;;;9.40;;
16577;SDS011;8401;52.528;13.340;2022-12-20T00:55:17;16.43;;;10.40;;
16577;SDS011;8401;52.528;13.340;2022-12-20T00:57:43;19.10;;;10.57;;
16577;SDS011;8401;52.528;13.340;2022-12-20T01:00:09;19.30;;;10.50;;
16577;SDS011;8401;52.528;13.340;2022-12-20T01:02:35;16.37;;;9.90;;
16577;SDS011;8401;52.528;13.340;2022-12-20T01:05:01;18.03;;;10.43;;
16577;SDS011;8401;52.528;13.340;2022-12-20T01:07:26;18.87;;;10.70;;
16577;SDS011;8401;52.528;13.340;2022-12-20T01:09:52;17.90;;;10.40;;
16577;SDS011;8401;52.528;13.340;2022-12-20T01:12:18;18.17;;;11.23;;
16577;SDS011;8401;52.528;13.340;2022-12-20T01:14:43;17.87;;;10.57;;
16577;SDS011;8401;52.528;13.340;2022-12-20T01:17:09;20.30;;;10.47;;
16577;SDS011;8401;52.528;13.340;2022-12-20T01:19:35;18.53;;;10.40;;
16577;SDS011;8401;52.528;13.340;2022-12-20T01:22:00;17.37;;;9.17;;
16577;SDS011;8401;52.528;13.340;2022-12-20T01:24:26;19.60;;;10.63;;
16577;SDS011;8401;52.528;13.340;2022-12-20T01:26:52;19.43;;;10.93;;
16577;SDS011;8401;52.528;13.340;2022-12-20T01:29:17;19.03;;;10.93;;
16577;SDS011;8401;52.528;13.340;2022-12-20T01:31:43;17.63;;;10.67;;
16577;SDS011;8401;52.528;13.340;2022-12-20T01:34:09;16.83;;;10.00;;
16577;SDS011;8401;52.528;13.340;2022-12-20T01:36:35;16.43;;;10.27;;
16577;SDS011;8401;52.528;13.340;2022-12-20T01:39:08;16.00;;;9.67;;
16577;SDS011;8401;52.528;13.340;2022-12-20T01:41:38;16.67;;;9.70;;
16577;SDS011;8401;52.528;13.340;2022-12-20T01:46:43;15.00;;;9.60;;
16577;SDS011;8401;52.528;13.340;2022-12-20T01:49:12;17.70;;;9.90;;
16577;SDS011;8401;52.528;13.340;2022-12-20T01:51:39;15.27;;;9.43;;
16577;SDS011;8401;52.528;13.340;2022-12-20T01:56:46;17.47;;;9.97;;
16577;SDS011;8401;52.528;13.340;2022-12-20T01:59:15;12.70;;;8.80;;
16577;SDS011;8401;52.528;13.340;2022-12-20T02:01:41;15.63;;;9.30;;
16577;SDS011;8401;52.528;13.340;2022-12-20T02:04:07;17.87;;;9.40;;
16577;SDS011;8401;52.528;13.340;2022-12-20T02:06:34;16.00;;;9.83;;
16577;SDS011;8401;52.528;13.340;2022-12-20T02:09:00;16.23;;;9.27;;
16577;SDS011;8401;52.528;13.340;2022-12-20T02:16:56;14.70;;;8.33;;
16577;SDS011;8401;52.528;13.340;2022-12-20T02:19:54;17.20;;;9.57;;
16577;SDS011;8401;52.528;13.340;2022-12-20T02:25:44;15.33;;;8.97;;
16577;SDS011;8401;52.528;13.340;2022-12-20T02:31:06;18.80;;;9.90;;
16577;SDS011;8401;52.528;13.340;2022-12-20T02:33:36;19.10;;;9.70;;
16577;SDS011;8401;52.528;13.340;2022-12-20T02:36:06;15.53;;;9.53;;
16577;SDS011;8401;52.528;13.340;2022-12-20T02:38:33;15.77;;;9.77;;
16577;SDS011;8401;52.528;13.340;2022-12-20T02:44:02;13.77;;;9.40;;
16577;SDS011;8401;52.528;13.340;2022-12-20T02:46:53;16.57;;;9.50;;
16577;SDS011;8401;52.528;13.340;2022-12-20T02:49:22;17.10;;;10.03;;
16577;SDS011;8401;52.528;13.340;2022-12-20T02:51:53;14.17;;;8.97;;
16577;SDS011;8401;52.528;13.340;2022-12-20T02:54:20;16.33;;;10.00;;
16577;SDS011;8401;52.528;13.340;2022-12-20T02:56:49;17.73;;;9.87;;
16577;SDS011;8401;52.528;13.340;2022-12-20T02:59:38;16.43;;;9.43;;
16577;SDS011;8401;52.528;13.340;2022-12-20T03:02:10;14.60;;;9.27;;
16577;SDS011;8401;52.528;13.340;2022-12-20T03:04:38;14.90;;;9.17;;
16577;SDS011;8401;52.528;13.340;2022-12-20T03:07:06;16.13;;;9.97;;
16577;SDS011;8401;52.528;13.340;2022-12-20T03:09:35;16.67;;;10.13;;
16577;SDS011;8401;52.528;13.340;2022-12-20T03:12:03;17.77;;;9.90;;
16577;SDS011;8401;52.528;13.340;2022-12-20T03:14:29;13.43;;;8.83;;
16577;SDS011;8401;52.528;13.340;2022-12-20T03:16:55;16.37;;;9.10;;
16577;SDS011;8401;52.528;13.340;2022-12-20T03:19:20;15.20;;;9.03;;
16577;SDS011;8401;52.528;13.340;2022-12-20T03:21:46;16.50;;;8.83;;
16577;SDS011;8401;52.528;13.340;2022-12-20T03:24:12;16.30;;;9.10;;
16577;SDS011;8401;52.528;13.340;2022-12-20T03:26:39;15.90;;;9.63;;
16577;SDS011;8401;52.528;13.340;2022-12-20T03:29:05;13.90;;;8.50;;
16577;SDS011;8401;52.528;13.340;2022-12-20T03:31:31;16.93;;;9.50;;
16577;SDS011;8401;52.528;13.340;2022-12-20T03:33:57;14.70;;;9.47;;
16577;SDS011;8401;52.528;13.340;2022-12-20T03:36:23;13.70;;;8.87;;
16577;SDS011;8401;52.528;13.340;2022-12-20T03:38:49;14.77;;;10.07;;
16577;SDS011;8401;52.528;13.340;2022-12-20T03:41:16;17.73;;;9.23;;
16577;SDS011;8401;52.528;13.340;2022-12-20T03:43:42;13.83;;;8.67;;
16577;SDS011;8401;52.528;13.340;2022-12-20T03:46:08;15.07;;;9.23;;
16577;SDS011;8401;52.528;13.340;2022-12-20T03:48:34;13.67;;;9.00;;
16577;SDS011;8401;52.528;13.340;2022-12-20T03:50:59;15.20;;;9.77;;
16577;SDS011;8401;52.528;13.340;2022-12-20T03:53:25;13.17;;;8.83;;
16577;SDS011;8401;52.528;13.340;2022-12-20T03:55:51;14.40;;;9.30;;
16577;SDS011;8401;52.528;13.340;2022-12-20T03:58:16;13.60;;;8.97;;
16577;SDS011;8401;52.528;13.340;2022-12-20T04:00:42;13.83;;;8.57;;
16577;SDS011;8401;52.528;13.340;2022-12-20T04:03:07;13.90;;;8.70;;
16577;SDS011;8401;52.528;13.340;2022-12-20T04:05:33;15.47;;;8.83;;
16577;SDS011;8401;52.528;13.340;2022-12-20T04:07:59;14.47;;;9.23;;
16577;SDS011;8401;52.528;13.340;2022-12-20T04:10:24;14.30;;;8.47;;
16577;SDS011;8401;52.528;13.340;2022-12-20T04:12:50;14.83;;;8.27;;
16577;SDS011;8401;52.528;13.340;2022-12-20T04:15:16;13.70;;;8.77;;
16577;SDS011;8401;52.528;13.340;2022-12-20T04:17:42;15.47;;;9.23;;
16577;SDS011;8401;52.528;13.340;2022-12-20T04:20:09;14.50;;;8.40;;
16577;SDS011;8401;52.528;13.340;2022-12-20T04:22:47;17.10;;;9.17;;
16577;SDS011;8401;52.528;13.340;2022-12-20T04:25:15;17.63;;;9.83;;
16577;SDS011;8401;52.528;13.340;2022-12-20T04:27:42;15.00;;;8.73;;
16577;SDS011;8401;52.528;13.340;2022-12-20T04:30:08;14.27;;;8.87;;
16577;SDS011;8401;52.528;13.340;2022-12-20T04:32:34;13.73;;;8.63;;
16577;SDS011;8401;52.528;13.340;2022-12-20T04:35:00;15.10;;;9.10;;
16577;SDS011;8401;52.528;13.340;2022-12-20T04:37:25;18.30;;;9.40;;
16577;SDS011;8401;52.528;13.340;2022-12-20T04:39:51;16.83;;;8.70;;
16577;SDS011;8401;52.528;13.340;2022-12-20T04:42:17;16.63;;;9.40;;
16577;SDS011;8401;52.528;13.340;2022-12-20T04:44:43;14.47;;;9.33;;
16577;SDS011;8401;52.528;13.340;2022-12-20T04:47:08;15.50;;;9.13;;
16577;SDS011;8401;52.528;13.340;2022-12-20T04:49:34;14.57;;;8.33;;
16577;SDS011;8401;52.528;13.340;2022-12-20T04:52:00;13.23;;;8.03;;
16577;SDS011;8401;52.528;13.340;2022-12-20T04:54:46;15.13;;;9.07;;
16577;SDS011;8401;52.528;13.340;2022-12-20T04:57:12;15.50;;;8.63;;
16577;SDS011;8401;52.528;13.340;2022-12-20T04:59:38;19.63;;;9.37;;
16577;SDS011;8401;52.528;13.340;2022-12-20T05:02:03;14.87;;;8.70;;
16577;SDS011;8401;52.528;13.340;2022-12-20T05:04:29;15.97;;;9.77;;
16577;SDS011;8401;52.528;13.340;2022-12-20T05:06:55;13.67;;;8.30;;
16577;SDS011;8401;52.528;13.340;2022-12-20T05:09:21;14.07;;;8.57;;
16577;SDS011;8401;52.528;13.340;2022-12-20T05:11:46;15.50;;;9.53;;
16577;SDS011;8401;52.528;13.340;2022-12-20T05:14:12;15.87;;;9.93;;
16577;SDS011;8401;52.528;13.340;2022-12-20T05:16:38;13.77;;;9.13;;
16577;SDS011;8401;52.528;13.340;2022-12-20T05:19:03;15.80;;;9.67;;
16577;SDS011;8401;52.528;13.340;2022-12-20T05:21:29;12.50;;;9.00;;
16577;SDS011;8401;52.528;13.340;2022-12-20T05:24:13;13.77;;;8.10;;
16577;SDS011;8401;52.528;13.340;2022-12-20T05:26:58;13.77;;;8.97;;
16577;SDS011;8401;52.528;13.340;2022-12-20T05:29:24;15.87;;;9.50;;
16577;SDS011;8401;52.528;13.340;2022-12-20T05:31:49;15.23;;;8.97;;
16577;SDS011;8401;52.528;13.340;2022-12-20T05:34:15;14.27;;;8.87;;
16577;SDS011;8401;52.528;13.340;2022-12-20T05:36:41;14.10;;;8.30;;
16577;SDS011;8401;52.528;13.340;2022-12-20T05:39:07;15.30;;;9.73;;
16577;SDS011;8401;52.528;13.340;2022-12-20T05:41:33;13.63;;;8.60;;
16577;SDS011;8401;52.528;13.340;2022-12-20T05:43:58;13.60;;;8.43;;
16577;SDS011;8401;52.528;13.340;2022-12-20T05:46:24;13.70;;;8.57;;
16577;SDS011;8401;52.528;13.340;2022-12-20T05:48:50;13.87;;;8.73;;
16577;SDS011;8401;52.528;13.340;2022-12-20T05:51:16;15.33;;;8.80;;
16577;SDS011;8401;52.528;13.340;2022-12-20T05:53:42;13.67;;;8.90;;
16577;SDS011;8401;52.528;13.340;2022-12-20T05:56:07;14.63;;;8.40;;
16577;SDS011;8401;52.528;13.340;2022-12-20T05:58:33;16.47;;;9.93;;
16577;SDS011;8401;52.528;13.340;2022-12-20T06:00:59;15.13;;;9.80;;
16577;SDS011;8401;52.528;13.340;2022-12-20T06:03:27;13.63;;;9.03;;
16577;SDS011;8401;52.528;13.340;2022-12-20T06:05:52;15.47;;;9.40;;
16577;SDS011;8401;52.528;13.340;2022-12-20T06:08:18;14.70;;;9.17;;
16577;SDS011;8401;52.528;13.340;2022-12-20T06:10:46;16.03;;;9.33;;
16577;SDS011;8401;52.528;13.340;2022-12-20T06:13:12;16.60;;;9.90;;
16577;SDS011;8401;52.528;13.340;2022-12-20T06:15:38;15.60;;;8.47;;
16577;SDS011;8401;52.528;13.340;2022-12-20T06:18:04;14.33;;;10.40;;
16577;SDS011;8401;52.528;13.340;2022-12-20T06:20:30;15.20;;;9.90;;
16577;SDS011;8401;52.528;13.340;2022-12-20T06:22:57;15.67;;;9.87;;
16577;SDS011;8401;52.528;13.340;2022-12-20T06:25:23;14.50;;;9.20;;
16577;SDS011;8401;52.528;13.340;2022-12-20T06:27:49;15.87;;;9.37;;
16577;SDS011;8401;52.528;13.340;2022-12-20T06:30:15;15.80;;;9.47;;
16577;SDS011;8401;52.528;13.340;2022-12-20T06:32:41;13.93;;;9.27;;
16577;SDS011;8401;52.528;13.340;2022-12-20T06:35:06;16.03;;;9.87;;
16577;SDS011;8401;52.528;13.340;2022-12-20T06:37:33;14.63;;;9.87;;
16577;SDS011;8401;52.528;13.340;2022-12-20T06:40:00;14.47;;;9.43;;
16577;SDS011;8401;52.528;13.340;2022-12-20T06:42:26;17.87;;;8.93;;
16577;SDS011;8401;52.528;13.340;2022-12-20T06:44:52;17.73;;;9.97;;
16577;SDS011;8401;52.528;13.340;2022-12-20T06:47:17;19.37;;;9.93;;
16577;SDS011;8401;52.528;13.340;2022-12-20T06:49:43;13.63;;;8.83;;
16577;SDS011;8401;52.528;13.340;2022-12-20T06:52:09;16.03;;;10.40;;
16577;SDS011;8401;52.528;13.340;2022-12-20T06:54:34;15.87;;;9.33;;
16577;SDS011;8401;52.528;13.340;2022-12-20T06:57:00;15.93;;;10.30;;
16577;SDS011;8401;52.528;13.340;2022-12-20T06:59:25;17.30;;;10.83;;
16577;SDS011;8401;52.528;13.340;2022-12-20T07:01:51;17.83;;;10.97;;
16577;SDS011;8401;52.528;13.340;2022-12-20T07:04:17;19.87;;;11.50;;
16577;SDS011;8401;52.528;13.340;2022-12-20T07:06:43;18.73;;;10.73;;
16577;SDS011;8401;52.528;13.340;2022-12-20T07:09:09;20.50;;;11.90;;
16577;SDS011;8401;52.528;13.340;2022-12-20T07:11:36;18.50;;;10.40;;
16577;SDS011;8401;52.528;13.340;2022-12-20T07:14:01;17.07;;;10.87;;
16577;SDS011;8401;52.528;13.340;2022-12-20T07:16:27;16.67;;;9.93;;
16577;SDS011;8401;52.528;13.340;2022-12-20T07:18:53;16.37;;;11.23;;
16577;SDS011;8401;52.528;13.340;2022-12-20T07:21:19;17.97;;;11.77;;
16577;SDS011;8401;52.528;13.340;2022-12-20T07:23:46;19.33;;;10.63;;
16577;SDS011;8401;52.528;13.340;2022-12-20T07:26:12;17.20;;;10.53;;
16577;SDS011;8401;52.528;13.340;2022-12-20T07:28:39;20.43;;;11.73;;
16577;SDS011;8401;52.528;13.340;2022-12-20T07:31:05;16.03;;;10.90;;
16577;SDS011;8401;52.528;13.340;2022-12-20T07:33:31;19.03;;;11.50;;
16577;SDS011;8401;52.528;13.340;2022-12-20T07:36:04;18.83;;;11.60;;
16577;SDS011;8401;52.528;13.340;2022-12-20T07:38:31;16.73;;;10.77;;
16577;SDS011;8401;52.528;13.340;2022-12-20T07:40:59;20.07;;;11.57;;
16577;SDS011;8401;52.528;13.340;2022-12-20T07:43:25;19.90;;;12.03;;
16577;SDS011;8401;52.528;13.340;2022-12-20T07:45:55;19.33;;;10.90;;
16577;SDS011;8401;52.528;13.340;2022-12-20T07:48:20;21.03;;;12.23;;
16577;SDS011;8401;52.528;13.340;2022-12-20T07:50:47;17.57;;;11.23;;
16577;SDS011;8401;52.528;13.340;2022-12-20T07:53:15;19.70;;;11.77;;
16577;SDS011;8401;52.528;13.340;2022-12-20T07:55:41;20.53;;;11.27;;
16577;SDS011;8401;52.528;13.340;2022-12-20T07:58:08;19.30;;;11.20;;
16577;SDS011;8401;52.528;13.340;2022-12-20T08:00:36;17.60;;;11.37;;
16577;SDS011;8401;52.528;13.340;2022-12-20T08:05:33;16.30;;;11.10;;
16577;SDS011;8401;52.528;13.340;2022-12-20T08:08:03;22.43;;;11.97;;
16577;SDS011;8401;52.528;13.340;2022-12-20T08:10:29;18.27;;;11.67;;
16577;SDS011;8401;52.528;13.340;2022-12-20T08:12:56;19.30;;;11.77;;
16577;SDS011;8401;52.528;13.340;2022-12-20T08:15:23;20.93;;;11.17;;
16577;SDS011;8401;52.528;13.340;2022-12-20T08:17:49;19.20;;;11.47;;
16577;SDS011;8401;52.528;13.340;2022-12-20T08:20:15;20.50;;;11.50;;
16577;SDS011;8401;52.528;13.340;2022-12-20T08:22:41;20.17;;;12.30;;
16577;SDS011;8401;52.528;13.340;2022-12-20T08:25:07;20.40;;;11.37;;
16577;SDS011;8401;52.528;13.340;2022-12-20T08:27:33;18.33;;;11.67;;
16577;SDS011;8401;52.528;13.340;2022-12-20T08:29:59;18.63;;;11.87;;
16577;SDS011;8401;52.528;13.340;2022-12-20T08:32:25;18.87;;;12.20;;
16577;SDS011;8401;52.528;13.340;2022-12-20T08:34:51;19.17;;;12.83;;
16577;SDS011;8401;52.528;13.340;2022-12-20T08:37:17;20.83;;;12.83;;
16577;SDS011;8401;52.528;13.340;2022-12-20T08:39:43;19.67;;;11.10;;
16577;SDS011;8401;52.528;13.340;2022-12-20T08:42:09;22.67;;;12.93;;
16577;SDS011;8401;52.528;13.340;2022-12-20T08:44:35;26.23;;;13.77;;
16577;SDS011;8401;52.528;13.340;2022-12-20T08:47:01;22.67;;;13.13;;
16577;SDS011;8401;52.528;13.340;2022-12-20T08:49:26;25.30;;;14.77;;
16577;SDS011;8401;52.528;13.340;2022-12-20T08:51:52;24.90;;;15.70;;
16577;SDS011;8401;52.528;13.340;2022-12-20T08:54:18;22.57;;;13.73;;
16577;SDS011;8401;52.528;13.340;2022-12-20T08:56:44;21.77;;;13.57;;
16577;SDS011;8401;52.528;13.340;2022-12-20T08:59:09;24.27;;;15.07;;
16577;SDS011;8401;52.528;13.340;2022-12-20T09:01:35;21.30;;;14.00;;
16577;SDS011;8401;52.528;13.340;2022-12-20T09:04:01;22.37;;;12.93;;
16577;SDS011;8401;52.528;13.340;2022-12-20T09:06:28;23.43;;;13.20;;
16577;SDS011;8401;52.528;13.340;2022-12-20T09:08:54;21.20;;;12.40;;
16577;SDS011;8401;52.528;13.340;2022-12-20T09:11:21;20.93;;;11.77;;
16577;SDS011;8401;52.528;13.340;2022-12-20T09:13:49;20.37;;;13.40;;
16577;SDS011;8401;52.528;13.340;2022-12-20T09:16:17;20.17;;;11.80;;
16577;SDS011;8401;52.528;13.340;2022-12-20T09:18:52;25.23;;;13.47;;
16577;SDS011;8401;52.528;13.340;2022-12-20T09:21:20;20.40;;;13.90;;
16577;SDS011;8401;52.528;13.340;2022-12-20T09:23:46;21.93;;;12.83;;
16577;SDS011;8401;52.528;13.340;2022-12-20T09:26:14;17.90;;;11.27;;
16577;SDS011;8401;52.528;13.340;2022-12-20T09:28:41;23.17;;;13.47;;
16577;SDS011;8401;52.528;13.340;2022-12-20T09:31:10;21.30;;;12.40;;
16577;SDS011;8401;52.528;13.340;2022-12-20T09:33:38;18.93;;;12.00;;
16577;SDS011;8401;52.528;13.340;2022-12-20T09:36:05;19.50;;;11.97;;
16577;SDS011;8401;52.528;13.340;2022-12-20T09:38:31;22.77;;;12.63;;
16577;SDS011;8401;52.528;13.340;2022-12-20T09:40:58;18.00;;;11.70;;
16577;SDS011;8401;52.528;13.340;2022-12-20T09:43:28;17.80;;;10.83;;
16577;SDS011;8401;52.528;13.340;2022-12-20T09:45:59;17.60;;;10.40;;
16577;SDS011;8401;52.528;13.340;2022-12-20T09:48:37;17.60;;;11.47;;
16577;SDS011;8401;52.528;13.340;2022-12-20T09:56:23;20.13;;;12.90;;
16577;SDS011;8401;52.528;13.340;2022-12-20T09:59:01;18.80;;;10.80;;
16577;SDS011;8401;52.528;13.340;2022-12-20T10:01:37;16.80;;;11.30;;
16577;SDS011;8401;52.528;13.340;2022-12-20T10:04:14;16.43;;;11.10;;
16577;SDS011;8401;52.528;13.340;2022-12-20T10:15:19;17.40;;;10.27;;
16577;SDS011;8401;52.528;13.340;2022-12-20T10:20:56;17.53;;;10.10;;
16577;SDS011;8401;52.528;13.340;2022-12-20T10:23:42;14.83;;;10.17;;
16577;SDS011;8401;52.528;13.340;2022-12-20T10:26:14;13.97;;;9.97;;
16577;SDS011;8401;52.528;13.340;2022-12-20T10:28:39;17.27;;;10.70;;
16577;SDS011;8401;52.528;13.340;2022-12-20T10:31:12;16.83;;;9.87;;
16577;SDS011;8401;52.528;13.340;2022-12-20T10:33:40;15.83;;;10.17;;
16577;SDS011;8401;52.528;13.340;2022-12-20T10:36:28;18.00;;;10.03;;
16577;SDS011;8401;52.528;13.340;2022-12-20T10:38:56;15.93;;;9.63;;
16577;SDS011;8401;52.528;13.340;2022-12-20T10:41:28;15.60;;;10.20;;
16577;SDS011;8401;52.528;13.340;2022-12-20T10:44:03;14.33;;;9.53;;
16577;SDS011;8401;52.528;13.340;2022-12-20T10:49:51;17.83;;;10.47;;
16577;SDS011;8401;52.528;13.340;2022-12-20T10:59:41;16.50;;;10.47;;
16577;SDS011;8401;52.528;13.340;2022-12-20T11:02:22;16.60;;;9.80;;
16577;SDS011;8401;52.528;13.340;2022-12-20T11:07:35;16.47;;;10.57;;
16577;SDS011;8401;52.528;13.340;2022-12-20T11:10:25;19.03;;;11.27;;
16577;SDS011;8401;52.528;13.340;2022-12-20T11:12:59;17.33;;;11.23;;
16577;SDS011;8401;52.528;13.340;2022-12-20T11:15:27;16.33;;;10.57;;
16577;SDS011;8401;52.528;13.340;2022-12-20T11:18:18;14.40;;;9.80;;
16577;SDS011;8401;52.528;13.340;2022-12-20T11:37:48;15.80;;;8.70;;
16577;SDS011;8401;52.528;13.340;2022-12-20T11:40:27;17.53;;;9.37;;
16577;SDS011;8401;52.528;13.340;2022-12-20T11:51:22;15.47;;;9.53;;
16577;SDS011;8401;52.528;13.340;2022-12-20T11:53:59;12.97;;;8.77;;
16577;SDS011;8401;52.528;13.340;2022-12-20T12:04:39;14.37;;;8.37;;
16577;SDS011;8401;52.528;13.340;2022-12-20T12:07:20;15.23;;;9.10;;
16577;SDS011;8401;52.528;13.340;2022-12-20T12:10:05;14.20;;;9.13;;
16577;SDS011;8401;52.528;13.340;2022-12-20T12:12:44;13.73;;;8.87;;
16577;SDS011;8401;52.528;13.340;2022-12-20T12:17:47;11.70;;;7.90;;
16577;SDS011;8401;52.528;13.340;2022-12-20T12:25:50;13.70;;;8.87;;
16577;SDS011;8401;52.528;13.340;2022-12-20T12:28:17;13.60;;;8.27;;
16577;SDS011;8401;52.528;13.340;2022-12-20T12:30:46;13.87;;;8.63;;
16577;SDS011;8401;52.528;13.340;2022-12-20T12:33:29;13.00;;;8.13;;
16577;SDS011;8401;52.528;13.340;2022-12-20T12:46:43;14.20;;;8.90;;
16577;SDS011;8401;52.528;13.340;2022-12-20T12:49:14;14.10;;;9.30;;
16577;SDS011;8401;52.528;13.340;2022-12-20T12:51:42;14.27;;;8.63;;
16577;SDS011;8401;52.528;13.340;2022-12-20T12:54:28;13.97;;;8.43;;
16577;SDS011;8401;52.528;13.340;2022-12-20T13:04:53;17.67;;;9.33;;
16577;SDS011;8401;52.528;13.340;2022-12-20T13:07:25;14.33;;;8.93;;
16577;SDS011;8401;52.528;13.340;2022-12-20T13:15:50;12.60;;;8.83;;
16577;SDS011;8401;52.528;13.340;2022-12-20T13:17:54;15.27;;;9.33;;
16577;SDS011;8401;52.528;13.340;2022-12-20T13:20:41;15.53;;;8.97;;
16577;SDS011;8401;52.528;13.340;2022-12-20T13:25:54;14.73;;;8.90;;
16577;SDS011;8401;52.528;13.340;2022-12-20T13:31:23;13.30;;;8.23;;
16577;SDS011;8401;52.528;13.340;2022-12-20T13:41:26;13.37;;;8.33;;
16577;SDS011;8401;52.528;13.340;2022-12-20T13:44:07;14.27;;;9.10;;
16577;SDS011;8401;52.528;13.340;2022-12-20T13:46:40;15.67;;;9.77;;
16577;SDS011;8401;52.528;13.340;2022-12-20T13:49:17;13.67;;;8.23;;
16577;SDS011;8401;52.528;13.340;2022-12-20T13:51:46;13.60;;;9.33;;
16577;SDS011;8401;52.528;13.340;2022-12-20T13:54:16;14.37;;;9.17;;
16577;SDS011;8401;52.528;13.340;2022-12-20T13:56:45;15.70;;;8.90;;
16577;SDS011;8401;52.528;13.340;2022-12-20T13:59:16;14.40;;;9.63;;
16577;SDS011;8401;52.528;13.340;2022-12-20T14:01:51;16.30;;;9.23;;
16577;SDS011;8401;52.528;13.340;2022-12-20T14:04:19;14.30;;;8.93;;
16577;SDS011;8401;52.528;13.340;2022-12-20T14:06:51;12.20;;;8.00;;
16577;SDS011;8401;52.528;13.340;2022-12-20T14:12:20;11.60;;;8.00;;
16577;SDS011;8401;52.528;13.340;2022-12-20T14:14:46;13.73;;;8.37;;
16577;SDS011;8401;52.528;13.340;2022-12-20T14:17:15;13.73;;;8.67;;
16577;SDS011;8401;52.528;13.340;2022-12-20T14:23:03;13.90;;;8.97;;
16577;SDS011;8401;52.528;13.340;2022-12-20T14:25:27;12.13;;;7.60;;
16577;SDS011;8401;52.528;13.340;2022-12-20T14:27:55;14.10;;;8.73;;
16577;SDS011;8401;52.528;13.340;2022-12-20T14:30:29;14.87;;;9.03;;
16577;SDS011;8401;52.528;13.340;2022-12-20T14:32:58;12.50;;;8.27;;
16577;SDS011;8401;52.528;13.340;2022-12-20T14:35:25;13.80;;;8.43;;
16577;SDS011;8401;52.528;13.340;2022-12-20T14:37:52;14.67;;;9.37;;
16577;SDS011;8401;52.528;13.340;2022-12-20T14:40:28;15.50;;;9.27;;
16577;SDS011;8401;52.528;13.340;2022-12-20T14:42:54;14.27;;;9.07;;
16577;SDS011;8401;52.528;13.340;2022-12-20T14:45:22;13.13;;;8.40;;
16577;SDS011;8401;52.528;13.340;2022-12-20T14:47:59;14.57;;;9.17;;
16577;SDS011;8401;52.528;13.340;2022-12-20T14:50:37;13.23;;;9.43;;
16577;SDS011;8401;52.528;13.340;2022-12-20T14:53:10;16.73;;;10.13;;
16577;SDS011;8401;52.528;13.340;2022-12-20T14:55:44;15.63;;;9.20;;
16577;SDS011;8401;52.528;13.340;2022-12-20T15:00:57;16.37;;;9.60;;
16577;SDS011;8401;52.528;13.340;2022-12-20T15:03:48;16.73;;;9.73;;
16577;SDS011;8401;52.528;13.340;2022-12-20T15:09:09;14.70;;;9.70;;
16577;SDS011;8401;52.528;13.340;2022-12-20T15:11:35;15.43;;;9.73;;
16577;SDS011;8401;52.528;13.340;2022-12-20T15:14:04;16.57;;;10.00;;
16577;SDS011;8401;52.528;13.340;2022-12-20T15:16:57;21.47;;;10.43;;
16577;SDS011;8401;52.528;13.340;2022-12-20T15:19:22;17.27;;;10.37;;
16577;SDS011;8401;52.528;13.340;2022-12-20T15:21:48;17.83;;;10.83;;
16577;SDS011;8401;52.528;13.340;2022-12-20T15:24:15;17.30;;;10.73;;
16577;SDS011;8401;52.528;13.340;2022-12-20T15:26:44;16.97;;;9.83;;
16577;SDS011;8401;52.528;13.340;2022-12-20T15:29:19;19.07;;;10.20;;
16577;SDS011;8401;52.528;13.340;2022-12-20T15:31:51;15.83;;;10.20;;
16577;SDS011;8401;52.528;13.340;2022-12-20T15:34:36;17.93;;;11.43;;
16577;SDS011;8401;52.528;13.340;2022-12-20T15:37:02;16.97;;;11.27;;
16577;SDS011;8401;52.528;13.340;2022-12-20T15:39:30;18.93;;;11.17;;
16577;SDS011;8401;52.528;13.340;2022-12-20T15:41:56;17.83;;;10.80;;
16577;SDS011;8401;52.528;13.340;2022-12-20T15:44:25;20.67;;;11.43;;
16577;SDS011;8401;52.528;13.340;2022-12-20T15:46:53;17.43;;;11.07;;
16577;SDS011;8401;52.528;13.340;2022-12-20T15:49:23;21.60;;;12.13;;
16577;SDS011;8401;52.528;13.340;2022-12-20T15:51:55;17.77;;;11.47;;
16577;SDS011;8401;52.528;13.340;2022-12-20T15:54:25;19.70;;;11.93;;
16577;SDS011;8401;52.528;13.340;2022-12-20T15:56:54;21.57;;;12.13;;
16577;SDS011;8401;52.528;13.340;2022-12-20T15:59:26;19.70;;;12.03;;
16577;SDS011;8401;52.528;13.340;2022-12-20T16:01:52;18.70;;;11.40;;
16577;SDS011;8401;52.528;13.340;2022-12-20T16:04:19;22.23;;;12.47;;
16577;SDS011;8401;52.528;13.340;2022-12-20T16:06:46;19.40;;;11.60;;
16577;SDS011;8401;52.528;13.340;2022-12-20T16:09:14;20.40;;;11.57;;
16577;SDS011;8401;52.528;13.340;2022-12-20T16:11:40;21.93;;;11.87;;
16577;SDS011;8401;52.528;13.340;2022-12-20T16:14:08;21.70;;;12.23;;
16577;SDS011;8401;52.528;13.340;2022-12-20T16:16:45;19.97;;;11.33;;
16577;SDS011;8401;52.528;13.340;2022-12-20T16:19:13;23.37;;;12.47;;
16577;SDS011;8401;52.528;13.340;2022-12-20T16:21:49;20.70;;;11.80;;
16577;SDS011;8401;52.528;13.340;2022-12-20T16:24:17;20.40;;;11.50;;
16577;SDS011;8401;52.528;13.340;2022-12-20T16:26:45;19.60;;;11.10;;
16577;SDS011;8401;52.528;13.340;2022-12-20T16:29:12;22.03;;;11.70;;
16577;SDS011;8401;52.528;13.340;2022-12-20T16:31:39;22.00;;;12.23;;
16577;SDS011;8401;52.528;13.340;2022-12-20T16:34:12;22.53;;;12.93;;
16577;SDS011;8401;52.528;13.340;2022-12-20T16:36:41;19.50;;;11.73;;
16577;SDS011;8401;52.528;13.340;2022-12-20T16:39:07;19.17;;;11.73;;
16577;SDS011;8401;52.528;13.340;2022-12-20T16:41:36;21.47;;;12.40;;
16577;SDS011;8401;52.528;13.340;2022-12-20T16:44:05;19.30;;;12.00;;
16577;SDS011;8401;52.528;13.340;2022-12-20T16:46:35;19.00;;;11.23;;
16577;SDS011;8401;52.528;13.340;2022-12-20T16:49:01;18.60;;;12.07;;
16577;SDS011;8401;52.528;13.340;2022-12-20T16:53:55;21.17;;;12.83;;
16577;SDS011;8401;52.528;13.340;2022-12-20T16:56:21;21.10;;;11.93;;
16577;SDS011;8401;52.528;13.340;2022-12-20T16:58:47;19.53;;;11.57;;
16577;SDS011;8401;52.528;13.340;2022-12-20T17:01:19;18.43;;;10.70;;
16577;SDS011;8401;52.528;13.340;2022-12-20T17:03:47;19.00;;;11.60;;